sensor_id;sensor_type;location;lat;lon;timestamp;P1;durP1;ratioP1;P2;durP2;ratioP2
57327;SDS011;43162;51.040;18.244;2023-02-15T00:01:17;36.40;;;18.10;;
57327;SDS011;43162;51.040;18.244;2023-02-15T00:03:43;36.80;;;17.00;;
57327;SDS011;43162;51.040;18.244;2023-02-15T00:06:08;32.70;;;16.20;;
57327;SDS011;43162;51.040;18.244;2023-02-15T00:08:33;35.70;;;17.30;;
57327;SDS011;43162;51.040;18.244;2023-02-15T00:11:06;32.40;;;15.90;;
57327;SDS011;43162;51.040;18.244;2023-02-15T00:13:31;28.30;;;16.50;;
57327;SDS011;43162;51.040;18.244;2023-02-15T00:16:04;33.90;;;16.10;;
57327;SDS011;43162;51.040;18.244;2023-02-15T00:18:30;26.20;;;15.10;;
57327;SDS011;43162;51.040;18.244;2023-02-15T00:20:55;26.70;;;15.30;;
57327;SDS011;43162;51.040;18.244;2023-02-15T00:23:21;34.20;;;16.70;;
57327;SDS011;43162;51.040;18.244;2023-02-15T00:25:46;29.10;;;15.40;;
57327;SDS011;43162;51.040;18.244;2023-02-15T00:28:12;25.90;;;14.70;;
57327;SDS011;43162;51.040;18.244;2023-02-15T00:30:37;25.40;;;14.40;;
57327;SDS011;43162;51.040;18.244;2023-02-15T00:33:03;23.70;;;12.90;;
57327;SDS011;43162;51.040;18.244;2023-02-15T00:35:29;24.70;;;13.40;;
57327;SDS011;43162;51.040;18.244;2023-02-15T00:37:55;20.90;;;13.10;;
57327;SDS011;43162;51.040;18.244;2023-02-15T00:40:21;20.10;;;12.50;;
57327;SDS011;43162;51.040;18.244;2023-02-15T00:42:46;21.80;;;12.80;;
57327;SDS011;43162;51.040;18.244;2023-02-15T00:45:12;19.70;;;13.30;;
57327;SDS011;43162;51.040;18.244;2023-02-15T00:47:37;19.90;;;12.70;;
57327;SDS011;43162;51.040;18.244;2023-02-15T00:50:03;26.70;;;13.50;;
57327;SDS011;43162;51.040;18.244;2023-02-15T00:52:29;21.60;;;12.20;;
57327;SDS011;43162;51.040;18.244;2023-02-15T00:54:54;20.00;;;13.30;;
57327;SDS011;43162;51.040;18.244;2023-02-15T00:57:19;16.60;;;12.00;;
57327;SDS011;43162;51.040;18.244;2023-02-15T00:59:45;20.70;;;11.90;;
57327;SDS011;43162;51.040;18.244;2023-02-15T01:02:11;18.20;;;12.30;;
57327;SDS011;43162;51.040;18.244;2023-02-15T01:04:37;20.40;;;11.70;;
57327;SDS011;43162;51.040;18.244;2023-02-15T01:07:02;18.70;;;12.40;;
57327;SDS011;43162;51.040;18.244;2023-02-15T01:09:29;20.60;;;12.60;;
57327;SDS011;43162;51.040;18.244;2023-02-15T01:11:54;22.10;;;13.00;;
57327;SDS011;43162;51.040;18.244;2023-02-15T01:14:20;21.30;;;11.30;;
57327;SDS011;43162;51.040;18.244;2023-02-15T01:16:45;23.30;;;12.20;;
57327;SDS011;43162;51.040;18.244;2023-02-15T01:19:10;17.20;;;12.40;;
57327;SDS011;43162;51.040;18.244;2023-02-15T01:21:36;17.60;;;11.60;;
57327;SDS011;43162;51.040;18.244;2023-02-15T01:24:01;17.80;;;10.60;;
57327;SDS011;43162;51.040;18.244;2023-02-15T01:26:27;19.90;;;11.00;;
57327;SDS011;43162;51.040;18.244;2023-02-15T01:28:52;20.70;;;10.90;;
57327;SDS011;43162;51.040;18.244;2023-02-15T01:31:19;16.80;;;11.00;;
57327;SDS011;43162;51.040;18.244;2023-02-15T01:33:45;17.90;;;10.50;;
57327;SDS011;43162;51.040;18.244;2023-02-15T01:36:11;23.60;;;13.30;;
57327;SDS011;43162;51.040;18.244;2023-02-15T01:38:36;20.10;;;10.20;;
57327;SDS011;43162;51.040;18.244;2023-02-15T01:41:01;19.30;;;11.80;;
57327;SDS011;43162;51.040;18.244;2023-02-15T01:43:48;19.40;;;12.40;;
57327;SDS011;43162;51.040;18.244;2023-02-15T01:46:16;20.70;;;11.00;;
57327;SDS011;43162;51.040;18.244;2023-02-15T01:48:51;16.70;;;10.30;;
57327;SDS011;43162;51.040;18.244;2023-02-15T01:51:18;17.00;;;10.40;;
57327;SDS011;43162;51.040;18.244;2023-02-15T01:53:53;17.80;;;10.80;;
57327;SDS011;43162;51.040;18.244;2023-02-15T01:56:20;16.90;;;10.50;;
57327;SDS011;43162;51.040;18.244;2023-02-15T01:58:46;17.70;;;10.90;;
57327;SDS011;43162;51.040;18.244;2023-02-15T02:01:12;20.20;;;10.70;;
57327;SDS011;43162;51.040;18.244;2023-02-15T02:06:23;17.90;;;11.30;;
57327;SDS011;43162;51.040;18.244;2023-02-15T02:08:49;19.60;;;11.80;;
57327;SDS011;43162;51.040;18.244;2023-02-15T02:11:14;21.20;;;11.70;;
57327;SDS011;43162;51.040;18.244;2023-02-15T02:13:40;22.60;;;12.70;;
57327;SDS011;43162;51.040;18.244;2023-02-15T02:26:28;18.70;;;13.00;;
57327;SDS011;43162;51.040;18.244;2023-02-15T02:31:57;18.30;;;11.30;;
57327;SDS011;43162;51.040;18.244;2023-02-15T02:34:35;20.00;;;11.90;;
57327;SDS011;43162;51.040;18.244;2023-02-15T02:37:05;25.80;;;11.50;;
57327;SDS011;43162;51.040;18.244;2023-02-15T02:44:27;19.70;;;12.50;;
57327;SDS011;43162;51.040;18.244;2023-02-15T02:49:38;16.20;;;10.70;;
57327;SDS011;43162;51.040;18.244;2023-02-15T02:52:06;19.30;;;11.20;;
57327;SDS011;43162;51.040;18.244;2023-02-15T02:54:33;14.30;;;9.90;;
57327;SDS011;43162;51.040;18.244;2023-02-15T02:57:00;18.60;;;10.40;;
57327;SDS011;43162;51.040;18.244;2023-02-15T02:59:28;18.60;;;11.70;;
57327;SDS011;43162;51.040;18.244;2023-02-15T03:04:21;19.00;;;11.50;;
57327;SDS011;43162;51.040;18.244;2023-02-15T03:06:52;21.30;;;11.40;;
57327;SDS011;43162;51.040;18.244;2023-02-15T03:11:45;14.20;;;9.60;;
57327;SDS011;43162;51.040;18.244;2023-02-15T03:14:12;15.50;;;10.50;;
57327;SDS011;43162;51.040;18.244;2023-02-15T03:16:38;14.00;;;10.20;;
57327;SDS011;43162;51.040;18.244;2023-02-15T03:19:08;16.70;;;11.10;;
57327;SDS011;43162;51.040;18.244;2023-02-15T03:24:02;15.20;;;9.50;;
57327;SDS011;43162;51.040;18.244;2023-02-15T03:26:29;13.50;;;9.00;;
57327;SDS011;43162;51.040;18.244;2023-02-15T03:28:55;14.80;;;9.60;;
57327;SDS011;43162;51.040;18.244;2023-02-15T03:31:21;17.00;;;9.90;;
57327;SDS011;43162;51.040;18.244;2023-02-15T03:34:06;12.10;;;8.70;;
57327;SDS011;43162;51.040;18.244;2023-02-15T03:36:41;14.90;;;9.90;;
57327;SDS011;43162;51.040;18.244;2023-02-15T03:41:39;15.20;;;9.70;;
57327;SDS011;43162;51.040;18.244;2023-02-15T03:44:11;15.90;;;10.20;;
57327;SDS011;43162;51.040;18.244;2023-02-15T03:46:46;19.70;;;12.20;;
57327;SDS011;43162;51.040;18.244;2023-02-15T03:52:01;17.20;;;10.20;;
57327;SDS011;43162;51.040;18.244;2023-02-15T03:54:28;15.00;;;10.10;;
57327;SDS011;43162;51.040;18.244;2023-02-15T03:57:10;15.40;;;10.10;;
57327;SDS011;43162;51.040;18.244;2023-02-15T03:59:55;16.70;;;10.00;;
57327;SDS011;43162;51.040;18.244;2023-02-15T04:02:54;19.70;;;9.60;;
57327;SDS011;43162;51.040;18.244;2023-02-15T04:05:21;15.40;;;10.10;;
57327;SDS011;43162;51.040;18.244;2023-02-15T04:07:46;18.30;;;10.90;;
57327;SDS011;43162;51.040;18.244;2023-02-15T04:10:12;17.30;;;11.70;;
57327;SDS011;43162;51.040;18.244;2023-02-15T04:12:56;17.60;;;11.20;;
57327;SDS011;43162;51.040;18.244;2023-02-15T04:15:22;17.20;;;10.50;;
57327;SDS011;43162;51.040;18.244;2023-02-15T04:18:06;17.20;;;12.10;;
57327;SDS011;43162;51.040;18.244;2023-02-15T04:20:31;19.30;;;12.20;;
57327;SDS011;43162;51.040;18.244;2023-02-15T04:23:15;19.20;;;12.80;;
57327;SDS011;43162;51.040;18.244;2023-02-15T04:26:02;21.70;;;13.00;;
57327;SDS011;43162;51.040;18.244;2023-02-15T04:28:28;22.70;;;12.80;;
57327;SDS011;43162;51.040;18.244;2023-02-15T04:30:54;22.30;;;13.30;;
57327;SDS011;43162;51.040;18.244;2023-02-15T04:33:19;18.10;;;12.80;;
57327;SDS011;43162;51.040;18.244;2023-02-15T04:35:45;23.00;;;14.90;;
57327;SDS011;43162;51.040;18.244;2023-02-15T04:38:10;21.20;;;13.00;;
57327;SDS011;43162;51.040;18.244;2023-02-15T04:40:36;18.30;;;12.40;;
57327;SDS011;43162;51.040;18.244;2023-02-15T04:43:01;15.90;;;11.50;;
57327;SDS011;43162;51.040;18.244;2023-02-15T04:45:27;20.70;;;13.40;;
57327;SDS011;43162;51.040;18.244;2023-02-15T04:47:52;17.70;;;11.40;;
57327;SDS011;43162;51.040;18.244;2023-02-15T04:50:18;16.60;;;11.60;;
57327;SDS011;43162;51.040;18.244;2023-02-15T04:52:44;18.70;;;12.20;;
57327;SDS011;43162;51.040;18.244;2023-02-15T04:55:09;19.50;;;12.30;;
57327;SDS011;43162;51.040;18.244;2023-02-15T04:57:35;16.80;;;11.70;;
57327;SDS011;43162;51.040;18.244;2023-02-15T05:00:00;16.50;;;11.40;;
57327;SDS011;43162;51.040;18.244;2023-02-15T05:02:26;18.40;;;11.70;;
57327;SDS011;43162;51.040;18.244;2023-02-15T05:04:52;19.20;;;12.70;;
57327;SDS011;43162;51.040;18.244;2023-02-15T05:07:17;18.30;;;11.30;;
57327;SDS011;43162;51.040;18.244;2023-02-15T05:09:45;18.30;;;12.10;;
57327;SDS011;43162;51.040;18.244;2023-02-15T05:12:11;18.60;;;11.60;;
57327;SDS011;43162;51.040;18.244;2023-02-15T05:14:36;21.30;;;12.20;;
57327;SDS011;43162;51.040;18.244;2023-02-15T05:17:02;20.90;;;11.70;;
57327;SDS011;43162;51.040;18.244;2023-02-15T05:19:28;18.40;;;12.10;;
57327;SDS011;43162;51.040;18.244;2023-02-15T05:21:54;19.40;;;12.00;;
57327;SDS011;43162;51.040;18.244;2023-02-15T05:24:19;15.70;;;10.90;;
57327;SDS011;43162;51.040;18.244;2023-02-15T05:27:03;17.50;;;11.30;;
57327;SDS011;43162;51.040;18.244;2023-02-15T05:29:47;18.60;;;11.90;;
57327;SDS011;43162;51.040;18.244;2023-02-15T05:32:13;17.90;;;11.20;;
57327;SDS011;43162;51.040;18.244;2023-02-15T05:34:39;16.80;;;12.00;;
57327;SDS011;43162;51.040;18.244;2023-02-15T05:37:04;18.90;;;12.10;;
57327;SDS011;43162;51.040;18.244;2023-02-15T05:39:30;24.00;;;13.70;;
57327;SDS011;43162;51.040;18.244;2023-02-15T05:41:58;21.90;;;13.50;;
57327;SDS011;43162;51.040;18.244;2023-02-15T05:44:24;21.70;;;13.40;;
57327;SDS011;43162;51.040;18.244;2023-02-15T05:46:49;20.50;;;13.50;;
57327;SDS011;43162;51.040;18.244;2023-02-15T05:49:15;18.50;;;12.40;;
57327;SDS011;43162;51.040;18.244;2023-02-15T05:51:41;25.60;;;14.70;;
57327;SDS011;43162;51.040;18.244;2023-02-15T05:54:06;26.40;;;14.80;;
57327;SDS011;43162;51.040;18.244;2023-02-15T05:56:31;22.70;;;15.30;;
57327;SDS011;43162;51.040;18.244;2023-02-15T05:58:57;24.70;;;16.70;;
57327;SDS011;43162;51.040;18.244;2023-02-15T06:01:22;23.30;;;15.90;;
57327;SDS011;43162;51.040;18.244;2023-02-15T06:03:48;31.20;;;17.00;;
57327;SDS011;43162;51.040;18.244;2023-02-15T06:06:14;26.70;;;15.40;;
57327;SDS011;43162;51.040;18.244;2023-02-15T06:08:40;26.60;;;15.50;;
57327;SDS011;43162;51.040;18.244;2023-02-15T06:11:05;22.10;;;13.90;;
57327;SDS011;43162;51.040;18.244;2023-02-15T06:13:31;29.40;;;16.50;;
57327;SDS011;43162;51.040;18.244;2023-02-15T06:15:56;25.30;;;16.60;;
57327;SDS011;43162;51.040;18.244;2023-02-15T06:18:22;30.30;;;17.70;;
57327;SDS011;43162;51.040;18.244;2023-02-15T06:20:48;35.60;;;18.50;;
57327;SDS011;43162;51.040;18.244;2023-02-15T06:23:13;32.40;;;16.70;;
57327;SDS011;43162;51.040;18.244;2023-02-15T06:25:39;29.60;;;15.60;;
57327;SDS011;43162;51.040;18.244;2023-02-15T06:28:04;29.40;;;18.80;;
57327;SDS011;43162;51.040;18.244;2023-02-15T06:30:30;32.80;;;17.10;;
57327;SDS011;43162;51.040;18.244;2023-02-15T06:32:56;23.70;;;15.70;;
57327;SDS011;43162;51.040;18.244;2023-02-15T06:35:21;30.90;;;17.80;;
57327;SDS011;43162;51.040;18.244;2023-02-15T06:37:47;28.70;;;16.20;;
57327;SDS011;43162;51.040;18.244;2023-02-15T06:40:13;30.10;;;17.80;;
57327;SDS011;43162;51.040;18.244;2023-02-15T06:42:39;27.60;;;17.70;;
57327;SDS011;43162;51.040;18.244;2023-02-15T06:45:04;31.00;;;16.80;;
57327;SDS011;43162;51.040;18.244;2023-02-15T06:47:30;28.90;;;17.00;;
57327;SDS011;43162;51.040;18.244;2023-02-15T06:49:55;30.40;;;17.80;;
57327;SDS011;43162;51.040;18.244;2023-02-15T06:52:21;25.10;;;16.70;;
57327;SDS011;43162;51.040;18.244;2023-02-15T06:54:46;34.50;;;18.50;;
57327;SDS011;43162;51.040;18.244;2023-02-15T06:57:11;30.10;;;16.30;;
57327;SDS011;43162;51.040;18.244;2023-02-15T06:59:37;30.30;;;18.00;;
57327;SDS011;43162;51.040;18.244;2023-02-15T07:02:02;29.30;;;18.20;;
57327;SDS011;43162;51.040;18.244;2023-02-15T07:04:28;31.50;;;19.00;;
57327;SDS011;43162;51.040;18.244;2023-02-15T07:06:55;42.70;;;23.20;;
57327;SDS011;43162;51.040;18.244;2023-02-15T07:09:20;42.30;;;23.40;;
57327;SDS011;43162;51.040;18.244;2023-02-15T07:11:46;39.20;;;23.90;;
57327;SDS011;43162;51.040;18.244;2023-02-15T07:14:29;34.70;;;20.50;;
57327;SDS011;43162;51.040;18.244;2023-02-15T07:16:55;29.90;;;18.40;;
57327;SDS011;43162;51.040;18.244;2023-02-15T07:19:20;32.40;;;19.90;;
57327;SDS011;43162;51.040;18.244;2023-02-15T07:21:46;36.70;;;24.00;;
57327;SDS011;43162;51.040;18.244;2023-02-15T07:24:11;30.60;;;20.40;;
57327;SDS011;43162;51.040;18.244;2023-02-15T07:26:37;30.10;;;19.30;;
57327;SDS011;43162;51.040;18.244;2023-02-15T07:29:02;26.90;;;18.40;;
57327;SDS011;43162;51.040;18.244;2023-02-15T07:31:28;27.20;;;17.60;;
57327;SDS011;43162;51.040;18.244;2023-02-15T07:33:53;39.70;;;20.10;;
57327;SDS011;43162;51.040;18.244;2023-02-15T07:36:19;27.00;;;18.10;;
57327;SDS011;43162;51.040;18.244;2023-02-15T07:38:44;27.40;;;17.70;;
57327;SDS011;43162;51.040;18.244;2023-02-15T07:41:12;25.40;;;16.80;;
57327;SDS011;43162;51.040;18.244;2023-02-15T07:43:38;31.40;;;18.60;;
57327;SDS011;43162;51.040;18.244;2023-02-15T07:46:05;30.00;;;18.40;;
57327;SDS011;43162;51.040;18.244;2023-02-15T07:48:32;28.20;;;16.90;;
57327;SDS011;43162;51.040;18.244;2023-02-15T07:50:59;26.40;;;16.80;;
57327;SDS011;43162;51.040;18.244;2023-02-15T07:53:24;23.90;;;16.20;;
57327;SDS011;43162;51.040;18.244;2023-02-15T07:55:50;24.50;;;17.00;;
57327;SDS011;43162;51.040;18.244;2023-02-15T07:58:18;27.50;;;17.60;;
57327;SDS011;43162;51.040;18.244;2023-02-15T08:00:43;28.80;;;18.10;;
57327;SDS011;43162;51.040;18.244;2023-02-15T08:03:24;31.40;;;19.70;;
57327;SDS011;43162;51.040;18.244;2023-02-15T08:05:58;32.40;;;20.10;;
57327;SDS011;43162;51.040;18.244;2023-02-15T08:08:24;31.20;;;20.90;;
57327;SDS011;43162;51.040;18.244;2023-02-15T08:11:09;30.10;;;18.30;;
57327;SDS011;43162;51.040;18.244;2023-02-15T08:13:51;30.70;;;17.80;;
57327;SDS011;43162;51.040;18.244;2023-02-15T08:18:49;34.50;;;20.30;;
57327;SDS011;43162;51.040;18.244;2023-02-15T08:21:14;37.20;;;22.20;;
57327;SDS011;43162;51.040;18.244;2023-02-15T08:23:39;35.60;;;21.70;;
57327;SDS011;43162;51.040;18.244;2023-02-15T08:26:05;36.40;;;21.00;;
57327;SDS011;43162;51.040;18.244;2023-02-15T08:28:30;33.20;;;19.50;;
57327;SDS011;43162;51.040;18.244;2023-02-15T08:31:03;32.80;;;20.00;;
57327;SDS011;43162;51.040;18.244;2023-02-15T08:33:29;33.40;;;21.10;;
57327;SDS011;43162;51.040;18.244;2023-02-15T08:35:54;36.40;;;22.00;;
57327;SDS011;43162;51.040;18.244;2023-02-15T08:38:20;38.90;;;22.80;;
57327;SDS011;43162;51.040;18.244;2023-02-15T08:40:45;39.70;;;21.40;;
57327;SDS011;43162;51.040;18.244;2023-02-15T08:43:11;37.90;;;22.50;;
57327;SDS011;43162;51.040;18.244;2023-02-15T08:45:36;41.80;;;23.10;;
57327;SDS011;43162;51.040;18.244;2023-02-15T08:48:02;43.00;;;22.90;;
57327;SDS011;43162;51.040;18.244;2023-02-15T08:50:28;35.10;;;21.10;;
57327;SDS011;43162;51.040;18.244;2023-02-15T08:52:53;45.70;;;24.20;;
57327;SDS011;43162;51.040;18.244;2023-02-15T08:55:19;41.70;;;23.20;;
57327;SDS011;43162;51.040;18.244;2023-02-15T08:57:44;57.60;;;33.90;;
57327;SDS011;43162;51.040;18.244;2023-02-15T09:00:11;100.50;;;54.70;;
57327;SDS011;43162;51.040;18.244;2023-02-15T09:02:37;69.80;;;41.80;;
57327;SDS011;43162;51.040;18.244;2023-02-15T09:05:03;48.50;;;29.40;;
57327;SDS011;43162;51.040;18.244;2023-02-15T09:07:29;44.70;;;29.00;;
57327;SDS011;43162;51.040;18.244;2023-02-15T09:09:54;45.80;;;29.50;;
57327;SDS011;43162;51.040;18.244;2023-02-15T09:12:20;42.50;;;23.90;;
57327;SDS011;43162;51.040;18.244;2023-02-15T09:14:45;45.50;;;24.10;;
57327;SDS011;43162;51.040;18.244;2023-02-15T09:17:11;47.80;;;25.60;;
57327;SDS011;43162;51.040;18.244;2023-02-15T09:19:36;48.20;;;25.80;;
57327;SDS011;43162;51.040;18.244;2023-02-15T09:22:02;62.40;;;26.90;;
57327;SDS011;43162;51.040;18.244;2023-02-15T09:24:31;49.60;;;26.20;;
57327;SDS011;43162;51.040;18.244;2023-02-15T09:26:57;56.30;;;27.80;;
57327;SDS011;43162;51.040;18.244;2023-02-15T09:29:22;57.10;;;28.40;;
57327;SDS011;43162;51.040;18.244;2023-02-15T09:31:49;62.50;;;29.60;;
57327;SDS011;43162;51.040;18.244;2023-02-15T09:34:16;72.50;;;32.30;;
57327;SDS011;43162;51.040;18.244;2023-02-15T09:36:42;61.40;;;29.70;;
57327;SDS011;43162;51.040;18.244;2023-02-15T09:46:50;61.10;;;31.10;;
57327;SDS011;43162;51.040;18.244;2023-02-15T09:49:22;57.80;;;27.80;;
57327;SDS011;43162;51.040;18.244;2023-02-15T09:54:22;57.90;;;28.10;;
57327;SDS011;43162;51.040;18.244;2023-02-15T09:56:52;72.10;;;30.80;;
57327;SDS011;43162;51.040;18.244;2023-02-15T10:04:29;58.60;;;28.50;;
57327;SDS011;43162;51.040;18.244;2023-02-15T10:07:12;59.40;;;29.50;;
57327;SDS011;43162;51.040;18.244;2023-02-15T10:12:14;61.10;;;30.80;;
57327;SDS011;43162;51.040;18.244;2023-02-15T10:17:18;67.90;;;29.70;;
57327;SDS011;43162;51.040;18.244;2023-02-15T10:27:20;68.40;;;32.50;;
57327;SDS011;43162;51.040;18.244;2023-02-15T10:30:03;56.60;;;30.50;;
57327;SDS011;43162;51.040;18.244;2023-02-15T10:32:35;56.10;;;27.60;;
57327;SDS011;43162;51.040;18.244;2023-02-15T10:35:09;56.90;;;29.20;;
57327;SDS011;43162;51.040;18.244;2023-02-15T10:37:45;57.80;;;28.70;;
57327;SDS011;43162;51.040;18.244;2023-02-15T10:50:45;58.40;;;29.00;;
57327;SDS011;43162;51.040;18.244;2023-02-15T11:00:41;50.40;;;26.50;;
57327;SDS011;43162;51.040;18.244;2023-02-15T11:03:25;57.10;;;27.70;;
57327;SDS011;43162;51.040;18.244;2023-02-15T11:08:31;54.50;;;26.60;;
57327;SDS011;43162;51.040;18.244;2023-02-15T11:10:58;55.00;;;29.10;;
57327;SDS011;43162;51.040;18.244;2023-02-15T11:13:27;49.50;;;26.30;;
57327;SDS011;43162;51.040;18.244;2023-02-15T11:22:17;52.70;;;26.40;;
57327;SDS011;43162;51.040;18.244;2023-02-15T11:24:43;44.50;;;24.60;;
57327;SDS011;43162;51.040;18.244;2023-02-15T11:29:38;49.10;;;27.00;;
57327;SDS011;43162;51.040;18.244;2023-02-15T11:32:19;52.10;;;25.10;;
57327;SDS011;43162;51.040;18.244;2023-02-15T11:37:33;54.40;;;29.20;;
57327;SDS011;43162;51.040;18.244;2023-02-15T11:40:00;51.00;;;26.70;;
57327;SDS011;43162;51.040;18.244;2023-02-15T11:42:28;57.30;;;27.70;;
57327;SDS011;43162;51.040;18.244;2023-02-15T11:44:58;53.40;;;27.30;;
57327;SDS011;43162;51.040;18.244;2023-02-15T11:47:24;60.40;;;31.50;;
57327;SDS011;43162;51.040;18.244;2023-02-15T11:49:50;57.80;;;30.00;;
57327;SDS011;43162;51.040;18.244;2023-02-15T11:52:16;52.20;;;29.50;;
57327;SDS011;43162;51.040;18.244;2023-02-15T11:54:43;49.00;;;27.30;;
57327;SDS011;43162;51.040;18.244;2023-02-15T11:57:31;47.70;;;27.00;;
57327;SDS011;43162;51.040;18.244;2023-02-15T12:00:10;44.90;;;27.30;;
57327;SDS011;43162;51.040;18.244;2023-02-15T12:02:38;44.60;;;25.40;;
57327;SDS011;43162;51.040;18.244;2023-02-15T12:05:23;51.90;;;25.30;;
57327;SDS011;43162;51.040;18.244;2023-02-15T12:07:52;44.90;;;26.60;;
57327;SDS011;43162;51.040;18.244;2023-02-15T12:12:43;44.70;;;24.20;;
57327;SDS011;43162;51.040;18.244;2023-02-15T12:15:10;43.70;;;22.00;;
57327;SDS011;43162;51.040;18.244;2023-02-15T12:17:38;40.60;;;23.30;;
57327;SDS011;43162;51.040;18.244;2023-02-15T12:22:39;44.20;;;23.40;;
57327;SDS011;43162;51.040;18.244;2023-02-15T12:30:16;41.80;;;21.80;;
57327;SDS011;43162;51.040;18.244;2023-02-15T12:32:51;43.70;;;23.30;;
57327;SDS011;43162;51.040;18.244;2023-02-15T12:35:36;46.50;;;24.40;;
57327;SDS011;43162;51.040;18.244;2023-02-15T12:38:04;39.80;;;20.90;;
57327;SDS011;43162;51.040;18.244;2023-02-15T12:40:31;43.30;;;23.30;;
57327;SDS011;43162;51.040;18.244;2023-02-15T12:42:57;39.60;;;22.20;;
57327;SDS011;43162;51.040;18.244;2023-02-15T12:48:07;38.70;;;21.20;;
57327;SDS011;43162;51.040;18.244;2023-02-15T12:50:33;40.10;;;24.70;;
57327;SDS011;43162;51.040;18.244;2023-02-15T12:53:13;45.50;;;22.70;;
57327;SDS011;43162;51.040;18.244;2023-02-15T12:55:49;43.70;;;24.70;;
57327;SDS011;43162;51.040;18.244;2023-02-15T12:58:19;40.70;;;20.90;;
57327;SDS011;43162;51.040;18.244;2023-02-15T13:00:45;36.80;;;20.10;;
57327;SDS011;43162;51.040;18.244;2023-02-15T13:03:18;41.70;;;23.30;;
57327;SDS011;43162;51.040;18.244;2023-02-15T13:05:44;39.40;;;21.90;;
57327;SDS011;43162;51.040;18.244;2023-02-15T13:08:12;33.30;;;20.20;;
57327;SDS011;43162;51.040;18.244;2023-02-15T13:13:26;37.00;;;22.00;;
57327;SDS011;43162;51.040;18.244;2023-02-15T13:18:49;37.10;;;21.20;;
57327;SDS011;43162;51.040;18.244;2023-02-15T13:21:20;31.50;;;19.60;;
57327;SDS011;43162;51.040;18.244;2023-02-15T13:26:18;34.30;;;20.00;;
57327;SDS011;43162;51.040;18.244;2023-02-15T13:28:45;37.20;;;20.00;;
57327;SDS011;43162;51.040;18.244;2023-02-15T13:31:12;36.20;;;21.00;;
57327;SDS011;43162;51.040;18.244;2023-02-15T13:33:38;44.40;;;22.70;;
57327;SDS011;43162;51.040;18.244;2023-02-15T13:41:21;34.30;;;19.90;;
57327;SDS011;43162;51.040;18.244;2023-02-15T13:51:29;36.90;;;21.20;;
57327;SDS011;43162;51.040;18.244;2023-02-15T13:59:46;50.70;;;22.90;;
57327;SDS011;43162;51.040;18.244;2023-02-15T14:09:50;42.00;;;19.60;;
57327;SDS011;43162;51.040;18.244;2023-02-15T14:14:52;42.90;;;22.20;;
57327;SDS011;43162;51.040;18.244;2023-02-15T14:20:07;41.80;;;23.10;;
57327;SDS011;43162;51.040;18.244;2023-02-15T14:25:27;40.90;;;22.70;;
57327;SDS011;43162;51.040;18.244;2023-02-15T14:30:24;46.00;;;25.70;;
57327;SDS011;43162;51.040;18.244;2023-02-15T14:32:53;48.90;;;26.20;;
57327;SDS011;43162;51.040;18.244;2023-02-15T14:35:23;48.30;;;25.00;;
57327;SDS011;43162;51.040;18.244;2023-02-15T14:48:31;66.60;;;40.60;;
57327;SDS011;43162;51.040;18.244;2023-02-15T14:50:58;50.20;;;29.00;;
57327;SDS011;43162;51.040;18.244;2023-02-15T14:58:54;45.60;;;22.10;;
57327;SDS011;43162;51.040;18.244;2023-02-15T15:01:25;46.70;;;26.30;;
57327;SDS011;43162;51.040;18.244;2023-02-15T15:03:52;48.80;;;24.90;;
57327;SDS011;43162;51.040;18.244;2023-02-15T15:06:37;43.80;;;23.50;;
57327;SDS011;43162;51.040;18.244;2023-02-15T15:09:24;46.40;;;24.50;;
57327;SDS011;43162;51.040;18.244;2023-02-15T15:11:51;44.60;;;23.10;;
57327;SDS011;43162;51.040;18.244;2023-02-15T15:22:21;67.40;;;31.60;;
57327;SDS011;43162;51.040;18.244;2023-02-15T15:24:48;80.70;;;36.80;;
57327;SDS011;43162;51.040;18.244;2023-02-15T15:29:58;64.80;;;31.70;;
57327;SDS011;43162;51.040;18.244;2023-02-15T15:32:25;72.00;;;32.70;;
57327;SDS011;43162;51.040;18.244;2023-02-15T15:50:39;71.70;;;35.10;;
57327;SDS011;43162;51.040;18.244;2023-02-15T15:53:05;73.50;;;34.40;;
57327;SDS011;43162;51.040;18.244;2023-02-15T15:55:32;81.40;;;38.80;;
57327;SDS011;43162;51.040;18.244;2023-02-15T15:58:05;73.90;;;32.60;;
57327;SDS011;43162;51.040;18.244;2023-02-15T16:00:33;74.90;;;31.20;;
57327;SDS011;43162;51.040;18.244;2023-02-15T16:02:59;63.60;;;28.70;;
57327;SDS011;43162;51.040;18.244;2023-02-15T16:05:25;57.20;;;29.20;;
57327;SDS011;43162;51.040;18.244;2023-02-15T16:07:50;63.40;;;29.40;;
57327;SDS011;43162;51.040;18.244;2023-02-15T16:10:23;54.90;;;28.30;;
57327;SDS011;43162;51.040;18.244;2023-02-15T16:12:49;58.30;;;26.60;;
57327;SDS011;43162;51.040;18.244;2023-02-15T16:15:19;65.80;;;32.60;;
57327;SDS011;43162;51.040;18.244;2023-02-15T16:17:47;68.20;;;31.50;;
57327;SDS011;43162;51.040;18.244;2023-02-15T16:20:19;49.30;;;24.30;;
57327;SDS011;43162;51.040;18.244;2023-02-15T16:22:47;47.30;;;24.60;;
57327;SDS011;43162;51.040;18.244;2023-02-15T16:27:45;100.00;;;43.50;;
57327;SDS011;43162;51.040;18.244;2023-02-15T16:30:18;94.80;;;41.00;;
57327;SDS011;43162;51.040;18.244;2023-02-15T16:32:44;68.70;;;32.40;;
57327;SDS011;43162;51.040;18.244;2023-02-15T16:35:13;58.60;;;30.40;;
57327;SDS011;43162;51.040;18.244;2023-02-15T16:37:39;56.30;;;29.30;;
57327;SDS011;43162;51.040;18.244;2023-02-15T16:40:05;46.60;;;26.80;;
57327;SDS011;43162;51.040;18.244;2023-02-15T16:42:30;45.20;;;24.80;;
57327;SDS011;43162;51.040;18.244;2023-02-15T16:47:28;36.20;;;20.40;;
57327;SDS011;43162;51.040;18.244;2023-02-15T16:49:55;49.60;;;24.20;;
57327;SDS011;43162;51.040;18.244;2023-02-15T16:52:23;47.30;;;23.60;;
57327;SDS011;43162;51.040;18.244;2023-02-15T16:54:51;55.80;;;24.30;;
57327;SDS011;43162;51.040;18.244;2023-02-15T16:57:18;50.70;;;22.00;;
57327;SDS011;43162;51.040;18.244;2023-02-15T16:59:45;44.70;;;21.30;;
57327;SDS011;43162;51.040;18.244;2023-02-15T17:02:16;51.30;;;22.10;;
57327;SDS011;43162;51.040;18.244;2023-02-15T17:04:41;41.80;;;19.70;;
57327;SDS011;43162;51.040;18.244;2023-02-15T17:07:17;36.00;;;17.40;;
57327;SDS011;43162;51.040;18.244;2023-02-15T17:09:53;38.40;;;18.40;;
57327;SDS011;43162;51.040;18.244;2023-02-15T17:15:24;35.80;;;16.90;;
57327;SDS011;43162;51.040;18.244;2023-02-15T17:17:49;31.00;;;18.40;;
57327;SDS011;43162;51.040;18.244;2023-02-15T17:20:15;36.40;;;20.20;;
57327;SDS011;43162;51.040;18.244;2023-02-15T17:22:41;53.50;;;27.10;;
57327;SDS011;43162;51.040;18.244;2023-02-15T17:25:14;43.80;;;22.50;;
57327;SDS011;43162;51.040;18.244;2023-02-15T17:27:43;58.40;;;28.40;;
57327;SDS011;43162;51.040;18.244;2023-02-15T17:30:15;51.80;;;28.10;;
57327;SDS011;43162;51.040;18.244;2023-02-15T17:32:52;51.00;;;27.40;;
57327;SDS011;43162;51.040;18.244;2023-02-15T17:35:19;53.90;;;24.90;;
57327;SDS011;43162;51.040;18.244;2023-02-15T17:37:46;53.40;;;24.70;;
57327;SDS011;43162;51.040;18.244;2023-02-15T17:42:43;45.70;;;23.80;;
57327;SDS011;43162;51.040;18.244;2023-02-15T17:45:09;57.00;;;28.30;;